Tiempo atmosférico en la estación meteorológica de Planoles, Girona (1149 m.)



Fecha
DESCASC
Temp. máxima en grados centígrados (hora)
DESCASC
Temp. mínima en grados centígrados (hora)
DESCASC
Temp. media en grados centígrados
DESCASC
Racha de viento máxima en m/sg (hora)
DESCASC
Velocidad máxima media en intervalos de 10 minutos(hora)
DESCASC
Precipitaciones diarias en mm
DESCASC
Precipitaciones de 00:00 a 06:00 en mm
DESCASC
Precipitaciones de 06:00 a 12:00 en mm
DESCASC
Precipitaciones de 12:00 a 18:00 en mm
DESCASC
Precipitaciones de 18:00 a 24:00 en mm
DESCASC
20-10-2019 13.8 (08:20) 7.5 (23:59) 10.7 13.89 (12:00) 6.67 (12:00) 34 1.2 24.6 8 0.2
19-10-2019 19.2 (13:10) 8.2 (08:30) 13.7 10 (14:10) 4.44 (11:20) 0.6 0 0 0 0.6
18-10-2019 19.2 (16:00) 6.9 (05:30) 13.1 6.67 (16:00) 4.17 (15:50) 0 0 0 0 0
17-10-2019 20.3 (14:20) 5.6 (00:00) 12.9 7.22 (14:50) 3.89 (13:50) 0 0 0 0 0
16-10-2019 17.3 (15:00) 3.8 (00:00) 10.5 6.39 (13:20) 3.61 (15:20) 0 0 0 0 0
15-10-2019 15.6 (15:20) 5.6 (00:00) 10.6 11.94 (02:10) 5 (14:10) 0.8 0.4 0.4 0 0
14-10-2019 22.3 (13:40) 8.5 (00:00) 15.4 10.56 (23:40) 6.11 (23:40) 0.4 0 0 0 0.4
13-10-2019 23.1 (15:10) 8.4 (00:00) 15.8 8.06 (16:00) 4.17 (17:30) 0 0 0 0 0
12-10-2019 23.1 (15:40) 10.7 (00:00) 16.9 6.39 (14:50) 3.33 (15:10) 0 0 0 0 0
11-10-2019 22.5 (16:00) 5.8 (00:00) 14.2 7.5 (13:50) 4.44 (15:00) 0 0 0 0 0
10-10-2019 19.5 (16:30) 7.9 (00:00) 13.7 7.5 (15:30) 4.17 (17:30) 0 0 0 0 0
09-10-2019 21.7 (14:50) 10.3 (00:00) 16 8.61 (15:30) 4.44 (15:00) 0 0 0 0 0
08-10-2019 23.6 (15:30) 8.5 (00:00) 16.1 7.5 (13:20) 4.17 (15:20) 0 0 0 0 0
07-10-2019 20.6 (14:50) 7.7 (00:00) 14.2 10.56 (06:10) 6.39 (03:00) 0 0 0 0 0
06-10-2019 18.4 (16:20) 5.5 (00:00) 11.9 6.11 (16:00) 3.33 (17:50) 0 0 0 0 0
05-10-2019 20.3 (15:20) 7.6 (00:00) 13.9 7.78 (15:30) 5 (15:30) 0 0 0 0 0
04-10-2019 21.6 (16:30) 5.9 (00:00) 13.8 7.78 (13:20) 4.72 (14:20) 0 0 0 0 0
03-10-2019 21.4 (14:20) 5.9 (00:00) 13.6 7.5 (15:20) 4.17 (15:20) 0 0 0 0 0
02-10-2019 20.5 (14:10) 8.4 (00:00) 14.4 11.94 (15:30) 7.22 (16:20) 0 0 0 0 0
01-10-2019 25.8 (16:40) 11 (00:00) 18.4 8.33 (13:30) 5 (17:00) 2 0 0 0 2
30-09-2019 23.8 (15:10) 10.6 (00:00) 17.2 6.67 (13:10) 4.17 (13:20) 0 0 0 0 0
29-09-2019 25.6 (16:50) 9.8 (00:00) 17.7 8.33 (15:40) 4.72 (15:30) 0 0 0 0 0
28-09-2019 22.5 (17:20) 11 (00:00) 16.8 9.72 (14:20) 4.17 (14:20) 0 0 0 0 0
27-09-2019 24.2 (15:10) 10.6 (00:00) 17.4 7.78 (13:40) 4.44 (13:40) 0 0 0 0 0
26-09-2019 22.5 (15:40) 8.8 (00:00) 15.7 6.94 (14:30) 3.89 (15:20) 0 0 0 0 0
25-09-2019 19.8 (15:50) 10.4 (00:00) 15.1 9.17 (17:00) 4.44 (16:30) 0 0 0 0 0
24-09-2019 23.6 (16:10) 9.3 (00:00) 16.5 10.83 (08:30) 6.11 (08:30) 0 0 0 0 0
23-09-2019 19.1 (17:30) 9.9 (00:00) 14.5 8.06 (14:00) 4.44 (13:30) 0 0 0 0 0
22-09-2019 22.8 (14:10) 10 (00:00) 16.4 8.89 (14:20) 4.44 (14:20) 2.8 0 0 1.2 1.6

Gráficas

Temp. máximas Temp. mínimas Temp. medias Precipitaciones Rachas de viento máximas Velocidades máximas media en intervalos de 10 minutos

Datos horarios

Fecha y hora oficial Temperatura (ºC) Velocidad del viento (km/h) Dirección del viento Racha (km/h) Dirección de racha Precipitación (mm) Presión (hPa) Tendencia (hPa) Humedad (%)
2019-10-21 23:00:00 5.8 3 Oeste 9 Noroeste 0 -- -- 92
2019-10-21 22:00:00 6.4 3 Norte 7 Norte 0 -- -- 92
2019-10-21 21:00:00 7.3 0 Calma 9 Noroeste 0 -- -- 93
2019-10-21 20:00:00 8 2 Nordeste 8 Noroeste 0 -- -- 94
2019-10-21 19:00:00 9 2 Sur 5 Sudoeste 0 -- -- 93
2019-10-21 18:00:00 9.8 0 Calma 9 Este 0 -- -- 88
2019-10-21 17:00:00 9.9 4 Oeste 8 Este 0 -- -- 88
2019-10-21 16:00:00 9.5 5 Este 15 Este 0 -- -- 89
2019-10-21 15:00:00 9.4 7 Este 19 Este 1 -- -- 91
2019-10-21 14:00:00 10.6 5 Este 11 Este 0 -- -- 77
2019-10-21 13:00:00 9.4 5 Sur 19 Este 0 -- -- 86
2019-10-21 12:00:00 8.7 3 Este 6 Sudeste 0 -- -- 84
2019-10-21 11:00:00 7.1 2 Oeste 8 Noroeste 0 -- -- 92
2019-10-21 10:00:00 6 2 Oeste 12 Noroeste 0 -- -- 88
2019-10-21 09:00:00 4.6 0 Calma 7 Oeste 0 -- -- 92
2019-10-21 08:00:00 4.5 3 Oeste 13 Oeste 0 -- -- 92
2019-10-21 07:00:00 4.3 3 Oeste 10 Noroeste 0 -- -- 92
2019-10-21 06:00:00 4.3 4 Noroeste 12 Noroeste 0 -- -- 90
2019-10-21 05:00:00 4.5 8 Noroeste 14 Oeste 0 -- -- 88
2019-10-21 04:00:00 4.8 7 Noroeste 14 Oeste 0 -- -- 88
2019-10-21 03:00:00 5 6 Noroeste 12 Oeste 0 -- -- 91
2019-10-21 02:00:00 6.2 5 Noroeste 11 Noroeste 0 -- -- 88
2019-10-21 01:00:00 7 6 Noroeste 12 Noroeste 0 -- -- 93
2019-10-21 00:00:00 7.5 4 Noroeste 10 Oeste 0 -- -- 95
2019-10-20 23:00:00 7.9 3 Oeste 9 Nordeste 0 -- -- 94
2019-10-20 22:00:00 8.5 3 Oeste 9 Oeste 0 -- -- 94
2019-10-20 21:00:00 8.8 4 Noroeste 14 Sudoeste 0 -- -- 89
2019-10-20 20:00:00 8.7 4 Nordeste 16 Oeste 0.2 -- -- 93
2019-10-20 19:00:00 9.4 4 Este 17 Noroeste 0 -- -- 92
2019-10-20 18:00:00 10.7 7 Noroeste 23 Norte 0 -- -- 81
2019-10-20 17:00:00 10.3 7 Noroeste 29 Norte 0.4 -- -- 81
2019-10-20 16:00:00 10 18 Noroeste 40 Oeste 2.6 -- -- 82
2019-10-20 15:00:00 11.2 16 Oeste 44 Oeste 2 -- -- 83
2019-10-20 14:00:00 12.1 5 Este 13 Oeste 0 -- -- 93
2019-10-20 13:00:00 11.5 4 Norte 34 Oeste 3 -- -- 92
2019-10-20 12:00:00 12 24 Oeste 50 Oeste 6.2 -- -- 83
2019-10-20 11:00:00 13.3 13 Oeste 37 Oeste 1 -- -- 83
2019-10-20 10:00:00 12.7 8 Sudeste 22 Sudeste 0.8 -- -- 91
2019-10-20 09:00:00 12.5 6 Nordeste 43 Oeste 11.2 -- -- 93
2019-10-20 08:00:00 12.9 11 Sudoeste 34 Oeste 0.8 -- -- 89
2019-10-20 07:00:00 12.8 8 Nordeste 17 Nordeste 4.6 -- -- 91
2019-10-20 06:00:00 12.5 5 Sudoeste 17 Este 0 -- -- 91
2019-10-20 05:00:00 12.4 4 Noroeste 14 Nordeste 0 -- -- 92
2019-10-20 04:00:00 12.4 7 Este 30 Noroeste 0.2 -- -- 91
2019-10-20 03:00:00 12.3 5 Sudoeste 18 Noroeste 1 -- -- 89
2019-10-20 02:00:00 13 5 Noroeste 36 Sudoeste 0 -- -- 83
2019-10-20 01:00:00 11.9 3 Sudeste 12 Noroeste 0 -- -- 93
2019-10-20 00:00:00 12.4 3 Este 14 Sudeste 0.6 -- -- 90
2019-10-19 23:00:00 12.7 3 Nordeste 12 Noroeste 0 -- -- 83
2019-10-19 22:00:00 12.4 4 Este 9 Nordeste 0 -- -- 85
2019-10-19 21:00:00 12.9 5 Noroeste 15 Oeste 0 -- -- 77
2019-10-19 20:00:00 13.6 2 Nordeste 13 Oeste 0 -- -- 75
2019-10-19 19:00:00 14.9 4 Sudoeste 11 Sudoeste 0 -- -- 69
2019-10-19 18:00:00 17 3 Sudoeste 22 Oeste 0 -- -- 59
2019-10-19 17:00:00 17.5 7 Sudeste 23 Sur 0 -- -- 57
2019-10-19 16:00:00 17.1 12 Sur 33 Sur 0 -- -- 57
2019-10-19 15:00:00 17.6 7 Sur 36 Sudoeste 0 -- -- 55
2019-10-19 14:00:00 18.2 10 Sur 30 Sudoeste 0 -- -- 53
2019-10-19 13:00:00 18.9 4 Noroeste 31 Oeste 0 -- -- 51
2019-10-19 12:00:00 16.8 11 Oeste 29 Oeste 0 -- -- 52
2019-10-19 11:00:00 16.1 16 Oeste 31 Sudoeste 0 -- -- 55
2019-10-19 10:00:00 11.2 2 Este 8 Sudoeste 0 -- -- 83
2019-10-19 09:00:00 8.8 2 Sudoeste 14 Noroeste 0 -- -- 86
2019-10-19 08:00:00 8.4 3 Noroeste 9 Noroeste 0 -- -- 86
2019-10-19 07:00:00 8.7 5 Noroeste 9 Norte 0 -- -- 88
2019-10-19 06:00:00 9.8 5 Oeste 13 Noroeste 0 -- -- 83
2019-10-19 05:00:00 10.5 7 Noroeste 14 Noroeste 0 -- -- 80
2019-10-19 04:00:00 10.1 4 Noroeste 8 Norte 0 -- -- 83
2019-10-19 03:00:00 9.9 2 Oeste 9 Norte 0 -- -- 83
2019-10-19 02:00:00 10.3 2 Noroeste 9 Noroeste 0 -- -- 80
2019-10-19 01:00:00 9.5 2 Oeste 5 Este 0 -- -- 85
2019-10-19 00:00:00 10.2 0 Calma 12 Noroeste 0 -- -- 83
2019-10-18 23:00:00 10.5 4 Noroeste 10 Noroeste 0 -- -- 83
2019-10-18 22:00:00 11.4 5 Noroeste 10 Noroeste 0 -- -- 82
2019-10-18 21:00:00 12.5 2 Noroeste 10 Noroeste 0 -- -- 79
2019-10-18 20:00:00 13.7 2 Noroeste 6 Noroeste 0 -- -- 77
2019-10-18 19:00:00 15.5 3 Sur 13 Este 0 -- -- 69
2019-10-18 18:00:00 17 5 Sur 21 Sur 0 -- -- 64
2019-10-18 17:00:00 18.2 10 Sur 19 Sur 0 -- -- 60
2019-10-18 16:00:00 19.2 12 Este 24 Este 0 -- -- 59
2019-10-18 15:00:00 18.7 9 Este 21 Sudeste 0 -- -- 58
2019-10-18 14:00:00 18.7 9 Este 22 Sudeste 0 -- -- 58
2019-10-18 13:00:00 18 9 Este 19 Este 0 -- -- 56
2019-10-18 12:00:00 15.3 8 Este 15 Este 0 -- -- 63
2019-10-18 11:00:00 13 3 Sudoeste 10 Sudoeste 0 -- -- 66
2019-10-18 10:00:00 10.5 3 Sudoeste 6 Sudoeste 0 -- -- 71
2019-10-18 09:00:00 9 2 Noroeste 9 Este 0 -- -- 75
2019-10-18 08:00:00 9.2 5 Nordeste 18 Este 0 -- -- 71
2019-10-18 07:00:00 8.1 4 Este 17 Este 0 -- -- 74
2019-10-18 06:00:00 7.3 3 Sudeste 8 Este 0 -- -- 78
2019-10-18 05:00:00 7.3 3 Este 8 Norte 0 -- -- 78
2019-10-18 04:00:00 7.8 4 Noroeste 9 Noroeste 0 -- -- 73
2019-10-18 03:00:00 7.3 0 Calma 5 Noroeste 0 -- -- 81
2019-10-18 02:00:00 8.2 2 Nordeste 7 Norte 0 -- -- 78
2019-10-18 01:00:00 7.8 0 Calma 5 Norte 0 -- -- 83
2019-10-18 00:00:00 8.8 3 Norte 12 Noroeste 0 -- -- 78
2019-10-17 23:00:00 9.1 5 Noroeste 9 Oeste 0 -- -- 77
2019-10-17 22:00:00 9.9 4 Noroeste 11 Noroeste 0 -- -- 74
2019-10-17 21:00:00 11.1 5 Noroeste 11 Noroeste 0 -- -- 71
2019-10-17 20:00:00 13.1 3 Noroeste 8 Norte 0 -- -- 64
2019-10-17 19:00:00 15.1 4 Este 15 Este 0 -- -- 56
2019-10-17 18:00:00 16.7 10 Este 22 Este 0 -- -- 50
2019-10-17 17:00:00 18.2 10 Este 23 Este 0 -- -- 46
2019-10-17 16:00:00 19.5 7 Sudeste 19 Este 0 -- -- 47
2019-10-17 15:00:00 20.2 5 Oeste 26 Sudoeste 0 -- -- 41
2019-10-17 14:00:00 20 13 Este 23 Este 0 -- -- 45
2019-10-17 13:00:00 19 10 Sudoeste 23 Este 0 -- -- 43
2019-10-17 12:00:00 16.6 9 Este 19 Este 0 -- -- 56
2019-10-17 11:00:00 14 3 Sudeste 8 Este 0 -- -- 65
2019-10-17 10:00:00 10.9 0 Calma 4 Este 0 -- -- 79
2019-10-17 09:00:00 6.8 0 Calma 4 Sudoeste 0 -- -- 90
2019-10-17 08:00:00 6 3 Noroeste 7 Noroeste 0 -- -- 91
2019-10-17 07:00:00 5.6 2 Noroeste 6 Noroeste 0 -- -- 91
2019-10-17 06:00:00 6 3 Oeste 8 Oeste 0 -- -- 90
2019-10-17 05:00:00 6.1 0 Calma 6 Norte 0 -- -- 89
2019-10-17 04:00:00 6.1 3 Noroeste 7 Este 0 -- -- 89
2019-10-17 03:00:00 6.6 4 Este 10 Noroeste 0 -- -- 88
2019-10-17 02:00:00 6.4 0 Calma 10 Noroeste 0 -- -- 89
2019-10-17 01:00:00 6.7 2 Sudeste 5 Noroeste 0 -- -- 89
2019-10-17 00:00:00 7 2 Oeste 8 Noroeste 0 -- -- 88
2019-10-16 23:00:00 7.1 3 Noroeste 8 Noroeste 0 -- -- 88
2019-10-16 22:00:00 8 0 Calma 10 Noroeste 0 -- -- 84
2019-10-16 21:00:00 9 3 Noroeste 8 Noroeste 0 -- -- 80
2019-10-16 20:00:00 10.5 4 Norte 7 Norte 0 -- -- 76
2019-10-16 19:00:00 12.8 4 Norte 12 Sudeste 0 -- -- 67
2019-10-16 18:00:00 15.9 8 Este 18 Este 0 -- -- 55
2019-10-16 17:00:00 15.6 11 Este 19 Este 0 -- -- 55
2019-10-16 16:00:00 17.1 11 Este 22 Este 0 -- -- 51
2019-10-16 15:00:00 17.3 10 Este 23 Sudeste 0 -- -- 51
2019-10-16 14:00:00 16.8 10 Este 23 Oeste 0 -- -- 53
2019-10-16 13:00:00 15.5 8 Sudeste 16 Este 0 -- -- 56
2019-10-16 12:00:00 13 10 Este 15 Este 0 -- -- 67
2019-10-16 11:00:00 10.1 6 Sudeste 11 Sudeste 0 -- -- 76
2019-10-16 10:00:00 7.2 4 Sudeste 9 Este 0 -- -- 85
2019-10-16 09:00:00 4.7 4 Sudeste 7 Sur 0 -- -- 89
2019-10-16 08:00:00 4.1 3 Noroeste 5 Noroeste 0 -- -- 89
2019-10-16 07:00:00 4.8 0 Calma 5 Este 0 -- -- 89
2019-10-16 06:00:00 4.8 3 Este 6 Este 0 -- -- 90
2019-10-16 05:00:00 4.8 0 Calma 6 Este 0 -- -- 91
2019-10-16 04:00:00 4.9 0 Calma 6 Noroeste 0 -- -- 91
2019-10-16 03:00:00 5.3 0 Calma 12 Noroeste 0 -- -- 90
2019-10-16 02:00:00 5.7 7 Noroeste 16 Noroeste 0 -- -- 89
2019-10-16 01:00:00 6.2 7 Noroeste 14 Oeste 0 -- -- 87
2019-10-16 00:00:00 6.4 4 Noroeste 12 Noroeste 0 -- -- 89
2019-10-15 23:00:00 6.8 2 Norte 8 Norte 0 -- -- 88
2019-10-15 22:00:00 8 4 Oeste 13 Noroeste 0 -- -- 86
2019-10-15 21:00:00 9.5 2 Norte 9 Noroeste 0 -- -- 82
2019-10-15 20:00:00 10.8 2 Sudeste 9 Este 0 -- -- 80
2019-10-15 19:00:00 11.5 6 Este 14 Este 0 -- -- 76
2019-10-15 18:00:00 12.2 7 Este 22 Sudeste 0 -- -- 71
2019-10-15 17:00:00 12.7 11 Este 28 Este 0 -- -- 69
2019-10-15 16:00:00 14.3 16 Este 30 Este 0 -- -- 63
2019-10-15 15:00:00 15.2 13 Este 30 Este 0 -- -- 59
2019-10-15 14:00:00 15.3 14 Este 28 Oeste 0 -- -- 63
2019-10-15 13:00:00 14.3 9 Este 20 Este 0 -- -- 61
2019-10-15 12:00:00 13.2 8 Sudeste 20 Sudeste 0 -- -- 71
2019-10-15 11:00:00 11.8 6 Sudeste 10 Sudeste 0.2 -- -- 75
2019-10-15 10:00:00 9.2 6 Este 10 Este 0 -- -- 88
2019-10-15 09:00:00 5.9 3 Sudoeste 9 Oeste 0.2 -- -- 95
2019-10-15 08:00:00 5.9 4 Noroeste 11 Nordeste 0 -- -- 94
2019-10-15 07:00:00 8 6 Oeste 20 Oeste 0 -- -- 80
2019-10-15 06:00:00 8.6 4 Este 11 Norte 0.2 -- -- 92
2019-10-15 05:00:00 7.9 0 Calma 9 Oeste 0 -- -- 96
2019-10-15 04:00:00 8.2 3 Noroeste 15 Norte 0 -- -- 93
2019-10-15 03:00:00 9.4 3 Norte 43 Oeste 0.2 -- -- 91
2019-10-15 02:00:00 9.2 8 Noroeste 16 Noroeste 0 -- -- 95
2019-10-15 01:00:00 10.2 6 Noroeste 13 Noroeste 0 -- -- 90
2019-10-15 00:00:00 11.1 4 Noroeste 38 Sudoeste 0 -- -- 90
2019-10-14 23:00:00 12.7 5 Este 23 Este 0 -- -- 88
2019-10-14 22:00:00 12.4 10 Este 23 Nordeste 0.2 -- -- 90
2019-10-14 21:00:00 12.1 4 Oeste 10 Nordeste 0 -- -- 95
2019-10-14 20:00:00 12.6 4 Este 23 Norte 0 -- -- 92
2019-10-14 19:00:00 12.8 3 Nordeste 12 Noroeste 0.2 -- -- 91
2019-10-14 18:00:00 13.8 4 Noroeste 30 Oeste 0 -- -- 83
2019-10-14 17:00:00 18 4 Nordeste 27 Oeste 0 -- -- 58
2019-10-14 16:00:00 18.8 17 Oeste 34 Noroeste 0 -- -- 57
2019-10-14 15:00:00 19.7 13 Este 31 Este 0 -- -- 56
2019-10-14 14:00:00 22.1 12 Este 24 Este 0 -- -- 47
2019-10-14 13:00:00 21.7 8 Sudeste 27 Este 0 -- -- 46
2019-10-14 12:00:00 20.1 9 Sudeste 21 Este 0 -- -- 53
2019-10-14 11:00:00 16.8 4 Sudeste 10 Sur 0 -- -- 63
2019-10-14 10:00:00 13.6 2 Sudeste 8 Sudoeste 0 -- -- 76
2019-10-14 09:00:00 10.2 2 Sudeste 13 Noroeste 0 -- -- 85
2019-10-14 08:00:00 8.6 4 Noroeste 9 Noroeste 0 -- -- 89
2019-10-14 07:00:00 8.8 4 Oeste 10 Noroeste 0 -- -- 86
2019-10-14 06:00:00 8.8 2 Noroeste 5 Oeste 0 -- -- 86
2019-10-14 05:00:00 10.1 0 Calma 15 Noroeste 0 -- -- 81
2019-10-14 04:00:00 10.7 7 Noroeste 12 Noroeste 0 -- -- 80
2019-10-14 03:00:00 10.4 5 Noroeste 15 Noroeste 0 -- -- 82
2019-10-14 02:00:00 10.9 4 Noroeste 14 Noroeste 0 -- -- 83
2019-10-14 01:00:00 11.9 8 Noroeste 16 Noroeste 0 -- -- 84
2019-10-14 00:00:00 12.8 5 Noroeste 13 Noroeste 0 -- -- 86
2019-10-13 23:00:00 14.4 0 Calma 4 Nordeste 0 -- -- 85
2019-10-13 22:00:00 14.7 0 Calma 4 Noroeste 0 -- -- 87
2019-10-13 21:00:00 15.3 2 Noroeste 6 Este 0 -- -- 83
2019-10-13 20:00:00 16.8 2 Sudoeste 16 Este 0 -- -- 77
2019-10-13 19:00:00 18.6 7 Este 14 Este 0 -- -- 69
2019-10-13 18:00:00 19.8 6 Este 25 Sudoeste 0 -- -- 61
2019-10-13 17:00:00 21.3 9 Este 24 Oeste 0 -- -- 53
2019-10-13 16:00:00 22.5 9 Sudoeste 29 Sudoeste 0 -- -- 44
2019-10-13 15:00:00 22.7 6 Sudeste 20 Sudeste 0 -- -- 51
2019-10-13 14:00:00 22.4 7 Sudoeste 21 Sudeste 0 -- -- 45
2019-10-13 13:00:00 22.1 8 Sudeste 16 Sudeste 0 -- -- 51
2019-10-13 12:00:00 19.9 14 Este 21 Este 0 -- -- 57
2019-10-13 11:00:00 17.2 3 Sudeste 8 Sur 0 -- -- 67
2019-10-13 10:00:00 13.9 0 Calma 8 Noroeste 0 -- -- 78
2019-10-13 09:00:00 10.2 3 Noroeste 11 Noroeste 0 -- -- 88
2019-10-13 08:00:00 8.9 4 Norte 10 Noroeste 0 -- -- 90
2019-10-13 07:00:00 8.7 0 Calma 8 Noroeste 0 -- -- 87
2019-10-13 06:00:00 9.4 3 Nordeste 10 Norte 0 -- -- 85
2019-10-13 05:00:00 9.3 2 Nordeste 10 Oeste 0 -- -- 85
2019-10-13 04:00:00 9.7 3 Noroeste 11 Noroeste 0 -- -- 84
2019-10-13 03:00:00 10.2 5 Noroeste 12 Noroeste 0 -- -- 85
2019-10-13 02:00:00 10.5 2 Noroeste 8 Noroeste 0 -- -- 85
2019-10-13 01:00:00 11.3 3 Oeste 9 Noroeste 0 -- -- 84
2019-10-13 00:00:00 11.8 3 Noroeste 10 Noroeste 0 -- -- 85
2019-10-12 23:00:00 12.5 4 Noroeste 12 Oeste 0 -- -- 85
2019-10-12 22:00:00 12.9 5 Noroeste 11 Noroeste 0 -- -- 84
2019-10-12 21:00:00 14.2 4 Noroeste 9 Noroeste 0 -- -- 79
2019-10-12 20:00:00 15.8 3 Norte 6 Norte 0 -- -- 77
2019-10-12 19:00:00 18.1 0 Calma 13 Noroeste 0 -- -- 71
2019-10-12 18:00:00 20.6 4 Sudoeste 16 Oeste 0 -- -- 61
2019-10-12 17:00:00 22.9 12 Sudoeste 20 Oeste 0 -- -- 53
2019-10-12 16:00:00 22.4 7 Sur 21 Noroeste 0 -- -- 53
2019-10-12 15:00:00 22 11 Sudoeste 23 Sudoeste 0 -- -- 50
2019-10-12 14:00:00 20.3 5 Sur 15 Este 0 -- -- 63
2019-10-12 13:00:00 17.5 5 Este 10 Sudeste 0 -- -- 72
2019-10-12 12:00:00 16.3 5 Sudeste 10 Sudeste 0 -- -- 76
2019-10-12 11:00:00 14.7 3 Sudoeste 6 Noroeste 0 -- -- 82
2019-10-12 10:00:00 13.3 3 Noroeste 10 Oeste 0 -- -- 87
2019-10-12 09:00:00 12.7 6 Oeste 13 Noroeste 0 -- -- 88
2019-10-12 08:00:00 12.6 3 Noroeste 12 Noroeste 0 -- -- 89
2019-10-12 07:00:00 12.8 4 Noroeste 10 Noroeste 0 -- -- 89
2019-10-12 06:00:00 12.7 0 Calma 4 Norte 0 -- -- 91
2019-10-12 05:00:00 12.2 0 Calma 4 Noroeste 0 -- -- 91
2019-10-12 04:00:00 11.2 3 Noroeste 5 Noroeste 0 -- -- 94
2019-10-12 03:00:00 11 2 Noroeste 6 Noroeste 0 -- -- 91
2019-10-12 02:00:00 11.3 3 Noroeste 11 Norte 0 -- -- 89
2019-10-12 01:00:00 12 5 Noroeste 13 Norte 0 -- -- 88
2019-10-12 00:00:00 13.1 6 Noroeste 13 Oeste 0 -- -- 84
2019-10-11 23:00:00 13.5 6 Noroeste 13 Noroeste 0 -- -- 82
2019-10-11 22:00:00 13.1 4 Noroeste 9 Noroeste 0 -- -- 86
2019-10-11 21:00:00 14 4 Norte 11 Noroeste 0 -- -- 84
2019-10-11 20:00:00 15.8 0 Calma 6 Oeste 0 -- -- 78
2019-10-11 19:00:00 18.1 3 Noroeste 15 Este 0 -- -- 71
2019-10-11 18:00:00 21 10 Este 23 Este 0 -- -- 59
2019-10-11 17:00:00 21.8 13 Este 23 Este 0 -- -- 55
2019-10-11 16:00:00 22.5 12 Este 25 Este 0 -- -- 52
2019-10-11 15:00:00 21.3 16 Este 25 Este 0 -- -- 56
2019-10-11 14:00:00 20.8 10 Este 27 Este 0 -- -- 56
2019-10-11 13:00:00 20.5 9 Sudeste 19 Este 0 -- -- 52
2019-10-11 12:00:00 17.9 6 Sudeste 13 Este 0 -- -- 52
2019-10-11 11:00:00 15.1 3 Sudeste 6 Sudeste 0 -- -- 55
2019-10-11 10:00:00 11.2 0 Calma 4 Sudeste 0 -- -- 75
2019-10-11 09:00:00 7.5 0 Calma 6 Noroeste 0 -- -- 80
2019-10-11 08:00:00 5.9 3 Oeste 6 Noroeste 0 -- -- 81
2019-10-11 07:00:00 6 0 Calma 7 Noroeste 0 -- -- 86
2019-10-11 06:00:00 6 3 Oeste 8 Noroeste 0 -- -- 86
2019-10-11 05:00:00 6.1 2 Oeste 9 Noroeste 0 -- -- 89
2019-10-11 04:00:00 6.1 3 Oeste 6 Noroeste 0 -- -- 89
2019-10-11 03:00:00 6.7 0 Calma 8 Noroeste 0 -- -- 88
2019-10-11 02:00:00 7 6 Noroeste 10 Noroeste 0 -- -- 91
2019-10-11 01:00:00 7.5 3 Noroeste 9 Noroeste 0 -- -- 89
2019-10-11 00:00:00 7.9 4 Noroeste 10 Noroeste 0 -- -- 87
2019-10-10 23:00:00 8.8 2 Noroeste 10 Noroeste 0 -- -- 84
2019-10-10 22:00:00 9.7 5 Noroeste 12 Noroeste 0 -- -- 81
2019-10-10 21:00:00 10.7 5 Noroeste 13 Noroeste 0 -- -- 78
2019-10-10 20:00:00 12.5 4 Noroeste 9 Noroeste 0 -- -- 71
2019-10-10 19:00:00 15 2 Sudoeste 15 Este 0 -- -- 62
2019-10-10 18:00:00 17.7 10 Este 23 Este 0 -- -- 52
2019-10-10 17:00:00 18.6 14 Este 25 Sudeste 0 -- -- 49
2019-10-10 16:00:00 19.2 13 Sudeste 27 Este 0 -- -- 49
2019-10-10 15:00:00 18.7 13 Este 24 Este 0 -- -- 53
2019-10-10 14:00:00 18.1 13 Este 23 Este 0 -- -- 57
2019-10-10 13:00:00 16.7 9 Sudeste 16 Este 0 -- -- 61
2019-10-10 12:00:00 14.8 9 Sudeste 17 Sudeste 0 -- -- 69
2019-10-10 11:00:00 11.7 4 Sudeste 11 Este 0 -- -- 80
2019-10-10 10:00:00 12 5 Este 11 Este 0 -- -- 80
2019-10-10 09:00:00 9.4 0 Calma 6 Norte 0 -- -- 92
2019-10-10 08:00:00 9.2 3 Oeste 10 Noroeste 0 -- -- 90
2019-10-10 07:00:00 10.1 4 Noroeste 8 Noroeste 0 -- -- 90
2019-10-10 06:00:00 10.8 0 Calma 6 Norte 0 -- -- 92
2019-10-10 05:00:00 11.6 2 Noroeste 6 Este 0 -- -- 91
2019-10-10 04:00:00 11.9 0 Calma 4 Nordeste 0 -- -- 94
2019-10-10 03:00:00 12.2 2 Noroeste 8 Sudeste 0 -- -- 94
2019-10-10 02:00:00 12.4 3 Sudeste 7 Sudeste 0 -- -- 95
2019-10-10 01:00:00 12.6 2 Este 7 Sudeste 0 -- -- 95
2019-10-10 00:00:00 12.8 4 Este 9 Sudeste 0 -- -- 94
2019-10-09 23:00:00 12.8 4 Este 11 Este 0 -- -- 94
2019-10-09 22:00:00 13.3 5 Este 10 Este 0 -- -- 92
2019-10-09 21:00:00 13.8 3 Sudeste 10 Este 0 -- -- 91
2019-10-09 20:00:00 14.3 4 Sudeste 12 Este 0 -- -- 90
2019-10-09 19:00:00 15.4 5 Sudeste 16 Sudeste 0 -- -- 86
2019-10-09 18:00:00 16.5 9 Este 20 Este 0 -- -- 81
2019-10-09 17:00:00 17.4 8 Este 23 Este 0 -- -- 77
2019-10-09 16:00:00 18.9 11 Sudeste 31 Sudoeste 0 -- -- 70
2019-10-09 15:00:00 21.7 16 Este 29 Este 0 -- -- 60
2019-10-09 14:00:00 20.1 10 Este 26 Este 0 -- -- 65
2019-10-09 13:00:00 20.5 15 Este 30 Este 0 -- -- 64
2019-10-09 12:00:00 19.6 13 Este 21 Este 0 -- -- 66
2019-10-09 11:00:00 18.1 5 Este 11 Sudeste 0 -- -- 67
2019-10-09 10:00:00 15.1 2 Oeste 4 Oeste 0 -- -- 76
2019-10-09 09:00:00 11.4 0 Calma 8 Noroeste 0 -- -- 87
2019-10-09 08:00:00 10.5 3 Noroeste 10 Oeste 0 -- -- 89
2019-10-09 07:00:00 10.8 4 Noroeste 11 Noroeste 0 -- -- 88
2019-10-09 06:00:00 10.9 0 Calma 10 Noroeste 0 -- -- 88
2019-10-09 05:00:00 11.4 5 Noroeste 12 Noroeste 0 -- -- 86
2019-10-09 04:00:00 11.5 6 Noroeste 13 Noroeste 0 -- -- 86
2019-10-09 03:00:00 11.1 2 Noroeste 6 Noroeste 0 -- -- 85
2019-10-09 02:00:00 11.7 0 Calma 10 Noroeste 0 -- -- 82
2019-10-09 01:00:00 11.9 0 Calma 9 Norte 0 -- -- 81
2019-10-09 00:00:00 12.5 4 Noroeste 8 Oeste 0 -- -- 77
2019-10-08 23:00:00 13.2 2 Oeste 13 Noroeste 0 -- -- 73
2019-10-08 22:00:00 14.3 7 Noroeste 15 Noroeste 0 -- -- 69
2019-10-08 21:00:00 14.9 5 Noroeste 13 Noroeste 0 -- -- 67
2019-10-08 20:00:00 16.3 6 Noroeste 13 Noroeste 0 -- -- 63
2019-10-08 19:00:00 19.4 3 Noroeste 19 Este 0 -- -- 53
2019-10-08 18:00:00 22 11 Este 20 Este 0 -- -- 45
2019-10-08 17:00:00 22.9 14 Este 23 Este 0 -- -- 44
2019-10-08 16:00:00 23.3 13 Este 25 Este 0 -- -- 46
2019-10-08 15:00:00 23.3 11 Este 22 Este 0 -- -- 48
2019-10-08 14:00:00 22.4 7 Sudeste 27 Este 0 -- -- 53
2019-10-08 13:00:00 20.7 9 Este 16 Este 0 -- -- 54
2019-10-08 12:00:00 18.9 6 Este 14 Este 0 -- -- 55
2019-10-08 11:00:00 16.5 7 Sudeste 12 Sur 0 -- -- 59
2019-10-08 10:00:00 13.6 4 Este 7 Este 0 -- -- 64
2019-10-08 09:00:00 10 2 Norte 8 Noroeste 0 -- -- 78
2019-10-08 08:00:00 8.7 0 Calma 7 Este 0 -- -- 80
2019-10-08 07:00:00 9 3 Nordeste 8 Nordeste 0 -- -- 79
2019-10-08 06:00:00 9.1 0 Calma 6 Norte 0 -- -- 77
2019-10-08 05:00:00 9 3 Noroeste 6 Noroeste 0 -- -- 77
2019-10-08 04:00:00 9.1 0 Calma 6 Noroeste 0 -- -- 73
2019-10-08 03:00:00 9.4 4 Noroeste 8 Noroeste 0 -- -- 69
2019-10-08 02:00:00 10.4 5 Norte 8 Norte 0 -- -- 64
2019-10-08 01:00:00 11.1 3 Noroeste 8 Este 0 -- -- 63
2019-10-08 00:00:00 11.9 3 Noroeste 6 Noroeste 0 -- -- 61
2019-10-07 23:00:00 12.4 0 Calma 8 Noroeste 0 -- -- 59
2019-10-07 22:00:00 13.2 5 Noroeste 10 Noroeste 0 -- -- 54
2019-10-07 21:00:00 13.7 2 Noroeste 6 Noroeste 0 -- -- 56
2019-10-07 20:00:00 14.5 4 Norte 10 Noroeste 0 -- -- 49
2019-10-07 19:00:00 16.6 3 Sur 14 Este 0 -- -- 45
2019-10-07 18:00:00 19.2 8 Este 21 Este 0 -- -- 37
2019-10-07 17:00:00 18.9 8 Este 16 Este 0 -- -- 35
2019-10-07 16:00:00 19.5 13 Este 24 Este 0 -- -- 35
2019-10-07 15:00:00 20.1 12 Este 23 Este 0 -- -- 33
2019-10-07 14:00:00 19.5 11 Este 21 Este 0 -- -- 39
2019-10-07 13:00:00 19.2 8 Este 17 Sudeste 0 -- -- 37
2019-10-07 12:00:00 16.6 8 Sudeste 22 Sudeste 0 -- -- 41
2019-10-07 11:00:00 14.3 8 Sudeste 17 Sudeste 0 -- -- 44
2019-10-07 10:00:00 9.1 4 Noroeste 13 Este 0 -- -- 54
2019-10-07 09:00:00 7.8 5 Noroeste 15 Sudoeste 0 -- -- 56
2019-10-07 08:00:00 9.3 6 Noroeste 17 Noroeste 0 -- -- 49
2019-10-07 07:00:00 9.2 4 Norte 38 Sudoeste 0 -- -- 46
2019-10-07 06:00:00 10 10 Noroeste 31 Sudoeste 0 -- -- 42
2019-10-07 05:00:00 10.3 14 Noroeste 28 Oeste 0 -- -- 53
2019-10-07 04:00:00 11.2 13 Oeste 32 Noroeste 0 -- -- 52
2019-10-07 03:00:00 12.1 23 Oeste 37 Noroeste 0 -- -- 48
2019-10-07 02:00:00 12.3 19 Oeste 33 Oeste 0 -- -- 51
2019-10-07 01:00:00 12.6 8 Oeste 31 Sudoeste 0 -- -- 50
2019-10-07 00:00:00 12.3 3 Este 14 Noroeste 0 -- -- 90
2019-10-06 23:00:00 12.9 2 Oeste 5 Noroeste 0 -- -- 89
2019-10-06 22:00:00 13.5 2 Este 7 Sudeste 0 -- -- 86
2019-10-06 21:00:00 14.3 3 Sudeste 6 Sudeste 0 -- -- 83
2019-10-06 20:00:00 14.9 0 Calma 7 Sudeste 0 -- -- 79
2019-10-06 19:00:00 15.6 5 Este 14 Nordeste 0 -- -- 74
2019-10-06 18:00:00 16.7 10 Este 20 Este 0 -- -- 72
2019-10-06 17:00:00 17.1 9 Este 22 Este 0 -- -- 70
2019-10-06 16:00:00 18.1 12 Este 22 Este 0 -- -- 68
2019-10-06 15:00:00 17 8 Este 14 Este 0 -- -- 71
2019-10-06 14:00:00 16.1 6 Sudeste 13 Sudeste 0 -- -- 70
2019-10-06 13:00:00 15.5 7 Sudeste 18 Este 0 -- -- 73
2019-10-06 12:00:00 14.3 6 Este 13 Sudoeste 0 -- -- 76
2019-10-06 11:00:00 14 5 Sudeste 10 Sudeste 0 -- -- 76
2019-10-06 10:00:00 10.5 2 Sur 6 Oeste 0 -- -- 88
2019-10-06 09:00:00 7.2 0 Calma 8 Noroeste 0 -- -- 96
2019-10-06 08:00:00 5.7 0 Calma 6 Noroeste 0 -- -- 97
2019-10-06 07:00:00 5.8 2 Norte 5 Noroeste 0 -- -- 97
2019-10-06 06:00:00 7 0 Calma 6 Noroeste 0 -- -- 97
2019-10-06 05:00:00 8.1 2 Noroeste 6 Noroeste 0 -- -- 97
2019-10-06 04:00:00 8.8 3 Noroeste 6 Noroeste 0 -- -- 96
2019-10-06 03:00:00 9 3 Noroeste 8 Noroeste 0 -- -- 94
2019-10-06 02:00:00 8.6 4 Noroeste 6 Noroeste 0 -- -- 94
2019-10-06 01:00:00 9 0 Calma 5 Oeste 0 -- -- 90
2019-10-06 00:00:00 9.7 0 Calma 4 Oeste 0 -- -- 87
2019-10-05 23:00:00 10.8 0 Calma 9 Noroeste 0 -- -- 83
2019-10-05 22:00:00 11.8 5 Noroeste 12 Noroeste 0 -- -- 83
2019-10-05 21:00:00 12.7 4 Noroeste 8 Norte 0 -- -- 84
2019-10-05 20:00:00 14.5 0 Calma 6 Noroeste 0 -- -- 78
2019-10-05 19:00:00 16.7 0 Calma 15 Este 0 -- -- 72
2019-10-05 18:00:00 18 6 Este 17 Este 0 -- -- 66
2019-10-05 17:00:00 19.1 11 Este 26 Este 0 -- -- 62
2019-10-05 16:00:00 19.9 15 Este 28 Este 0 -- -- 59
2019-10-05 15:00:00 19.9 15 Este 27 Este 0 -- -- 60
2019-10-05 14:00:00 19.3 11 Este 21 Este 0 -- -- 60
2019-10-05 13:00:00 18 10 Este 21 Este 0 -- -- 64
2019-10-05 12:00:00 16.7 12 Este 21 Este 0 -- -- 66
2019-10-05 11:00:00 15 4 Sudeste 11 Sudeste 0 -- -- 73
2019-10-05 10:00:00 10.4 3 Noroeste 6 Noroeste 0 -- -- 89
2019-10-05 09:00:00 8.4 0 Calma 6 Noroeste 0 -- -- 90
2019-10-05 08:00:00 7.8 2 Oeste 6 Noroeste 0 -- -- 91
2019-10-05 07:00:00 8.6 7 Noroeste 12 Noroeste 0 -- -- 89
2019-10-05 06:00:00 8.5 2 Noroeste 7 Nordeste 0 -- -- 93
2019-10-05 05:00:00 9.2 4 Noroeste 8 Noroeste 0 -- -- 91
2019-10-05 04:00:00 9.2 3 Sudeste 13 Sudoeste 0 -- -- 91
2019-10-05 03:00:00 10.3 6 Este 13 Noroeste 0 -- -- 86
2019-10-05 02:00:00 10.4 4 Noroeste 11 Noroeste 0 -- -- 84
2019-10-05 01:00:00 10.5 2 Oeste 10 Noroeste 0 -- -- 80
2019-10-05 00:00:00 10.3 3 Noroeste 7 Norte 0 -- -- 80
2019-10-04 23:00:00 11 4 Noroeste 12 Noroeste 0 -- -- 75
2019-10-04 22:00:00 11.8 3 Oeste 12 Noroeste 0 -- -- 76
2019-10-04 21:00:00 13.4 6 Noroeste 13 Noroeste 0 -- -- 70
2019-10-04 20:00:00 15.5 4 Noroeste 12 Nordeste 0 -- -- 63
2019-10-04 19:00:00 18.3 5 Este 18 Este 0 -- -- 54
2019-10-04 18:00:00 20.3 8 Este 22 Este 0 -- -- 49
2019-10-04 17:00:00 21.1 9 Este 24 Este 0 -- -- 48
2019-10-04 16:00:00 21.3 14 Este 27 Este 0 -- -- 45
2019-10-04 15:00:00 21.3 13 Este 26 Este 0 -- -- 47
2019-10-04 14:00:00 21.2 14 Este 28 Este 0 -- -- 45
2019-10-04 13:00:00 20.6 13 Este 22 Sudeste 0 -- -- 46
2019-10-04 12:00:00 18.9 6 Sudeste 15 Sudeste 0 -- -- 48
2019-10-04 11:00:00 15.8 3 Sudoeste 5 Sudoeste 0 -- -- 55
2019-10-04 10:00:00 12.1 2 Sudeste 7 Sudoeste 0 -- -- 63
2019-10-04 09:00:00 7.9 0 Calma 5 Noroeste 0 -- -- 65
2019-10-04 08:00:00 5.9 3 Noroeste 6 Noroeste 0 -- -- 67
2019-10-04 07:00:00 6.7 4 Noroeste 12 Noroeste 0 -- -- 64
2019-10-04 06:00:00 6.4 0 Calma 10 Oeste 0 -- -- 71
2019-10-04 05:00:00 6.9 4 Noroeste 8 Noroeste 0 -- -- 71
2019-10-04 04:00:00 6.7 4 Este 7 Noroeste 0 -- -- 74
2019-10-04 03:00:00 6.8 0 Calma 9 Noroeste 0 -- -- 76
2019-10-04 02:00:00 7.4 4 Noroeste 11 Noroeste 0 -- -- 72
2019-10-04 01:00:00 8.1 3 Este 12 Noroeste 0 -- -- 74
2019-10-04 00:00:00 8.6 5 Noroeste 10 Noroeste 0 -- -- 73
2019-10-03 23:00:00 9.5 2 Norte 12 Oeste 0 -- -- 71
2019-10-03 22:00:00 10.7 8 Noroeste 14 Noroeste 0 -- -- 68
2019-10-03 21:00:00 11.5 7 Noroeste 13 Noroeste 0 -- -- 66
2019-10-03 20:00:00 13.2 8 Noroeste 13 Noroeste 0 -- -- 62
2019-10-03 19:00:00 16.6 3 Oeste 18 Este 0 -- -- 50
2019-10-03 18:00:00 19.7 10 Este 19 Este 0 -- -- 42
2019-10-03 17:00:00 20.9 9 Este 25 Este 0 -- -- 38
2019-10-03 16:00:00 21 12 Este 27 Este 0 -- -- 36
2019-10-03 15:00:00 21.2 13 Este 25 Este 0 -- -- 31
2019-10-03 14:00:00 21 13 Este 23 Este 0 -- -- 33
2019-10-03 13:00:00 17.3 5 Sudeste 10 Este 0 -- -- 32
2019-10-03 12:00:00 10.9 3 Noroeste 6 Noroeste 0 -- -- 68
2019-10-03 11:00:00 9.4 2 Nordeste 10 Este 0 -- -- 65
2019-10-03 10:00:00 8 5 Este 9 Este 0 -- -- 60
2019-10-03 09:00:00 6.5 3 Norte 6 Noroeste 0 -- -- 63
2019-10-03 08:00:00 5.9 3 Oeste 6 Nordeste 0 -- -- 65
2019-10-03 07:00:00 6.1 3 Este 6 Este 0 -- -- 70
2019-10-03 06:00:00 6.7 3 Este 8 Noroeste 0 -- -- 70
2019-10-03 05:00:00 6.4 0 Calma 9 Este 0 -- -- 75
2019-10-03 04:00:00 6.8 4 Este 15 Este 0 -- -- 75
2019-10-03 03:00:00 6.9 6 Este 13 Este 0 -- -- 75
2019-10-03 02:00:00 7.1 4 Nordeste 10 Sudeste 0 -- -- 72
2019-10-03 01:00:00 8.1 5 Norte 12 Noroeste 0 -- -- 66
2019-10-03 00:00:00 9.4 4 Nordeste 13 Este 0 -- -- 66
2019-10-02 23:00:00 11.2 2 Este 14 Noroeste 0 -- -- 58
2019-10-02 22:00:00 13 3 Sudeste 34 Oeste 0 -- -- 50
2019-10-02 21:00:00 14.1 12 Noroeste 35 Oeste 0 -- -- 43
2019-10-02 20:00:00 14.2 13 Oeste 42 Oeste 0 -- -- 48
2019-10-02 19:00:00 15.8 15 Oeste 43 Oeste 0 -- -- 46
2019-10-02 18:00:00 17.7 21 Oeste 40 Oeste 0 -- -- 41
2019-10-02 17:00:00 18.5 21 Oeste 41 Sur 0 -- -- 41
2019-10-02 16:00:00 18.7 21 Sudoeste 43 Noroeste 0 -- -- 40
2019-10-02 15:00:00 19.6 17 Oeste 42 Oeste 0 -- -- 42
2019-10-02 14:00:00 20.1 10 Norte 39 Oeste 0 -- -- 37
2019-10-02 13:00:00 18.5 20 Oeste 37 Oeste 0 -- -- 43
2019-10-02 12:00:00 17.5 8 Este 27 Este 0 -- -- 56
2019-10-02 11:00:00 15.5 6 Sudeste 19 Este 0 -- -- 65
2019-10-02 10:00:00 12.5 3 Sudoeste 15 Este 0 -- -- 72
2019-10-02 09:00:00 10.6 5 Este 23 Oeste 0 -- -- 68
2019-10-02 08:00:00 11 11 Noroeste 26 Noroeste 0 -- -- 64
2019-10-02 07:00:00 11.8 13 Oeste 25 Oeste 0 -- -- 60
2019-10-02 06:00:00 8.4 6 Noroeste 14 Este 0 -- -- 78
2019-10-02 05:00:00 10.5 8 Este 15 Noroeste 0 -- -- 77
2019-10-02 04:00:00 11.3 6 Noroeste 16 Este 0 -- -- 62
2019-10-02 03:00:00 12.5 2 Nordeste 21 Oeste 0 -- -- 66
2019-10-02 02:00:00 12.8 8 Noroeste 16 Oeste 0 -- -- 77
2019-10-02 01:00:00 12.9 7 Noroeste 15 Noroeste 0 -- -- 88
2019-10-02 00:00:00 13.1 2 Noroeste 5 Norte 0 -- -- 92
2019-10-01 23:00:00 13.3 3 Noroeste 15 Noroeste 0.4 -- -- 91
2019-10-01 22:00:00 13.3 7 Noroeste 14 Oeste 0.6 -- -- 89
2019-10-01 21:00:00 14.4 4 Noroeste 19 Oeste 1 -- -- 87
2019-10-01 20:00:00 18.7 9 Noroeste 19 Oeste 0 -- -- 64
2019-10-01 19:00:00 20.6 9 Este 24 Sudeste 0 -- -- 60
2019-10-01 18:00:00 23.4 10 Sur 22 Oeste 0 -- -- 39
2019-10-01 17:00:00 25.5 18 Oeste 29 Sudoeste 0 -- -- 33
2019-10-01 16:00:00 24.9 11 Sur 27 Sur 0 -- -- 40
2019-10-01 15:00:00 24.6 5 Sudoeste 21 Noroeste 0 -- -- 34
2019-10-01 14:00:00 25.7 9 Sudoeste 30 Oeste 0 -- -- 35
2019-10-01 13:00:00 25 12 Oeste 29 Oeste 0 -- -- 37
2019-10-01 12:00:00 23.7 5 Sudeste 14 Este 0 -- -- 42
2019-10-01 11:00:00 20.4 2 Sur 6 Oeste 0 -- -- 52
2019-10-01 10:00:00 16.6 2 Oeste 7 Noroeste 0 -- -- 63
2019-10-01 09:00:00 13.2 3 Este 12 Noroeste 0 -- -- 73
2019-10-01 08:00:00 11.6 3 Noroeste 10 Noroeste 0 -- -- 73
2019-10-01 07:00:00 11.4 2 Noroeste 11 Noroeste 0 -- -- 73
2019-10-01 06:00:00 11.4 2 Noroeste 6 Noroeste 0 -- -- 73
2019-10-01 05:00:00 11 0 Calma 0 Calma 0 -- -- 79
2019-10-01 04:00:00 11 0 Calma 0 Calma 0 -- -- 80
2019-10-01 03:00:00 11.4 0 Calma 0 Calma 0 -- -- 79
2019-10-01 02:00:00 11.7 0 Calma 5 Noroeste 0 -- -- 80
2019-10-01 01:00:00 12.2 0 Calma 4 Noroeste 0 -- -- 84
2019-10-01 00:00:00 12.8 4 Noroeste 10 Norte 0 -- -- 80
2019-09-30 23:00:00 13.6 3 Noroeste 5 Noroeste 0 -- -- 86
2019-09-30 22:00:00 15.1 0 Calma 11 Noroeste 0 -- -- 83
2019-09-30 21:00:00 16.3 6 Noroeste 12 Noroeste 0 -- -- 79
2019-09-30 20:00:00 18.5 4 Noroeste 9 Noroeste 0 -- -- 73
2019-09-30 19:00:00 21.1 3 Sur 14 Este 0 -- -- 66
2019-09-30 18:00:00 23.1 10 Este 18 Este 0 -- -- 60
2019-09-30 17:00:00 22 10 Este 23 Este 0 -- -- 62
2019-09-30 16:00:00 23.1 13 Este 24 Este 0 -- -- 59
2019-09-30 15:00:00 23.6 14 Este 23 Este 0 -- -- 55
2019-09-30 14:00:00 23.3 10 Este 24 Este 0 -- -- 54
2019-09-30 13:00:00 22.4 13 Este 24 Este 0 -- -- 55
2019-09-30 12:00:00 21.2 12 Este 22 Este 0 -- -- 59
2019-09-30 11:00:00 19.1 7 Sudeste 13 Sudeste 0 -- -- 63
2019-09-30 10:00:00 16 0 Calma 6 Sudeste 0 -- -- 67
2019-09-30 09:00:00 12.7 4 Este 8 Noroeste 0 -- -- 77
2019-09-30 08:00:00 10.8 0 Calma 12 Noroeste 0 -- -- 81
2019-09-30 07:00:00 11.2 5 Noroeste 11 Noroeste 0 -- -- 81
2019-09-30 06:00:00 11.3 0 Calma 9 Noroeste 0 -- -- 82
2019-09-30 05:00:00 11.8 2 Sudoeste 14 Noroeste 0 -- -- 81
2019-09-30 04:00:00 12.5 6 Noroeste 12 Noroeste 0 -- -- 77
2019-09-30 03:00:00 12.6 6 Noroeste 15 Noroeste 0 -- -- 76
2019-09-30 02:00:00 13.4 8 Noroeste 17 Noroeste 0 -- -- 71
2019-09-30 01:00:00 13.5 7 Noroeste 16 Noroeste 0 -- -- 70
2019-09-30 00:00:00 14.2 5 Noroeste 14 Oeste 0 -- -- 71
2019-09-29 23:00:00 14.5 3 Noroeste 13 Noroeste 0 -- -- 71
2019-09-29 22:00:00 15.6 9 Noroeste 16 Noroeste 0 -- -- 67
2019-09-29 21:00:00 16.8 8 Noroeste 15 Noroeste 0 -- -- 64
2019-09-29 20:00:00 18.9 3 Noroeste 11 Oeste 0 -- -- 58
2019-09-29 19:00:00 23.1 2 Sur 13 Oeste 0 -- -- 45
2019-09-29 18:00:00 25.3 5 Sudeste 21 Este 0 -- -- 39
2019-09-29 17:00:00 25.6 9 Este 21 Este 0 -- -- 42
2019-09-29 16:00:00 25.5 12 Este 30 Este 0 -- -- 45
2019-09-29 15:00:00 25.3 13 Este 27 Este 0 -- -- 46
2019-09-29 14:00:00 25.3 15 Este 26 Este 0 -- -- 46
2019-09-29 13:00:00 25 10 Este 19 Este 0 -- -- 40
2019-09-29 12:00:00 23.2 6 Sudeste 12 Sudeste 0 -- -- 42
2019-09-29 11:00:00 20.1 3 Sudeste 6 Sur 0 -- -- 56
2019-09-29 10:00:00 16.2 2 Sudeste 6 Sudeste 0 -- -- 63
2019-09-29 09:00:00 13 0 Calma 5 Noroeste 0 -- -- 68
2019-09-29 08:00:00 11 3 Noroeste 6 Noroeste 0 -- -- 67
2019-09-29 07:00:00 10.2 0 Calma 7 Este 0 -- -- 73
2019-09-29 06:00:00 10.5 3 Noroeste 6 Noroeste 0 -- -- 72
2019-09-29 05:00:00 9.9 0 Calma 5 Oeste 0 -- -- 80
2019-09-29 04:00:00 9.9 0 Calma 7 Oeste 0 -- -- 82
2019-09-29 03:00:00 10.6 2 Nordeste 10 Noroeste 0 -- -- 82
2019-09-29 02:00:00 10.8 2 Noroeste 5 Noroeste 0 -- -- 88
2019-09-29 01:00:00 11.4 0 Calma 6 Noroeste 0 -- -- 83
2019-09-29 00:00:00 12.3 3 Noroeste 10 Noroeste 0 -- -- 85
2019-09-28 23:00:00 13 2 Oeste 9 Oeste 0 -- -- 87
2019-09-28 22:00:00 13.9 4 Este 13 Noroeste 0 -- -- 86
2019-09-28 21:00:00 15.3 5 Noroeste 10 Noroeste 0 -- -- 80
2019-09-28 20:00:00 17.5 2 Este 8 Oeste 0 -- -- 74
2019-09-28 19:00:00 19.4 6 Oeste 16 Oeste 0 -- -- 65
2019-09-28 18:00:00 22.1 4 Noroeste 17 Sudoeste 0 -- -- 55
2019-09-28 17:00:00 22 10 Sudoeste 25 Sudoeste 0 -- -- 56
2019-09-28 16:00:00 22.2 10 Sudoeste 24 Sudeste 0 -- -- 55
2019-09-28 15:00:00 22.3 10 Sudoeste 35 Sudoeste 0 -- -- 55
2019-09-28 14:00:00 21.6 12 Sudoeste 30 Sudeste 0 -- -- 55
2019-09-28 13:00:00 21.2 10 Sudeste 26 Sudeste 0 -- -- 57
2019-09-28 12:00:00 20.5 7 Este 19 Este 0 -- -- 61
2019-09-28 11:00:00 18.1 8 Sudeste 13 Sudeste 0 -- -- 70
2019-09-28 10:00:00 15.5 0 Calma 7 Oeste 0 -- -- 78
2019-09-28 09:00:00 12 6 Noroeste 15 Noroeste 0 -- -- 83
2019-09-28 08:00:00 11.1 9 Noroeste 17 Oeste 0 -- -- 86
2019-09-28 07:00:00 11.7 6 Noroeste 15 Norte 0 -- -- 87
2019-09-28 06:00:00 12.8 7 Noroeste 11 Noroeste 0 -- -- 88
2019-09-28 05:00:00 12.7 3 Noroeste 9 Noroeste 0 -- -- 91
2019-09-28 04:00:00 12.9 2 Oeste 13 Noroeste 0 -- -- 89
2019-09-28 03:00:00 13.4 5 Noroeste 11 Noroeste 0 -- -- 88
2019-09-28 02:00:00 14.1 4 Noroeste 9 Noroeste 0 -- -- 87
2019-09-28 01:00:00 14.8 2 Noroeste 5 Sudoeste 0 -- -- 91
2019-09-28 00:00:00 15.3 3 Nordeste 4 Nordeste 0 -- -- 92
2019-09-27 23:00:00 16.1 2 Nordeste 5 Este 0 -- -- 88
2019-09-27 22:00:00 17 0 Calma 8 Sudeste 0 -- -- 85
2019-09-27 21:00:00 17.6 2 Sudeste 10 Este 0 -- -- 82
2019-09-27 20:00:00 18.8 6 Este 13 Sudeste 0 -- -- 75
2019-09-27 19:00:00 20.9 4 Este 16 Este 0 -- -- 65
2019-09-27 18:00:00 21.5 3 Oeste 19 Sur 0 -- -- 59
2019-09-27 17:00:00 22.8 11 Oeste 20 Oeste 0 -- -- 52
2019-09-27 16:00:00 22.5 6 Este 18 Sudeste 0 -- -- 58
2019-09-27 15:00:00 24 8 Sudeste 21 Sudeste 0 -- -- 53
2019-09-27 14:00:00 23.8 13 Este 28 Este 0 -- -- 54
2019-09-27 13:00:00 23.5 10 Sudeste 21 Sudeste 0 -- -- 54
2019-09-27 12:00:00 21.4 7 Sudeste 13 Sur 0 -- -- 56
2019-09-27 11:00:00 19.1 4 Sudeste 8 Sudeste 0 -- -- 62
2019-09-27 10:00:00 16.2 0 Calma 4 Sur 0 -- -- 75
2019-09-27 09:00:00 12.7 3 Oeste 10 Noroeste 0 -- -- 83
2019-09-27 08:00:00 11 0 Calma 9 Noroeste 0 -- -- 88
2019-09-27 07:00:00 10.7 4 Noroeste 8 Noroeste 0 -- -- 91
2019-09-27 06:00:00 10.9 0 Calma 6 Oeste 0 -- -- 90
2019-09-27 05:00:00 11.1 2 Noroeste 7 Noroeste 0 -- -- 90
2019-09-27 04:00:00 11.1 2 Noroeste 9 Noroeste 0 -- -- 89
2019-09-27 03:00:00 11.2 3 Oeste 7 Noroeste 0 -- -- 90
2019-09-27 02:00:00 11.5 3 Noroeste 7 Noroeste 0 -- -- 88
2019-09-27 01:00:00 12.1 4 Noroeste 10 Oeste 0 -- -- 87
2019-09-27 00:00:00 12.6 5 Noroeste 10 Noroeste 0 -- -- 85
2019-09-26 23:00:00 13 5 Noroeste 9 Noroeste 0 -- -- 84
2019-09-26 22:00:00 14.1 4 Noroeste 13 Noroeste 0 -- -- 79
2019-09-26 21:00:00 15.2 5 Noroeste 13 Noroeste 0 -- -- 77
2019-09-26 20:00:00 17.1 4 Noroeste 8 Noroeste 0 -- -- 71
2019-09-26 19:00:00 19.8 4 Sudeste 18 Este 0 -- -- 61
2019-09-26 18:00:00 21.8 10 Este 22 Este 0 -- -- 55
2019-09-26 17:00:00 22.4 12 Este 21 Este 0 -- -- 54
2019-09-26 16:00:00 21.3 12 Este 24 Este 0 -- -- 57
2019-09-26 15:00:00 22.3 12 Este 25 Este 0 -- -- 55
2019-09-26 14:00:00 21.6 13 Este 21 Este 0 -- -- 59
2019-09-26 13:00:00 20.5 11 Este 23 Este 0 -- -- 60
2019-09-26 12:00:00 19.1 10 Sudeste 19 Este 0 -- -- 63
2019-09-26 11:00:00 16.8 6 Sudeste 11 Este 0 -- -- 71
2019-09-26 10:00:00 13.9 4 Sudeste 7 Sudeste 0 -- -- 77
2019-09-26 09:00:00 11 2 Sudeste 7 Oeste 0 -- -- 88
2019-09-26 08:00:00 8.9 3 Noroeste 6 Noroeste 0 -- -- 93
2019-09-26 07:00:00 9.8 3 Noroeste 10 Noroeste 0 -- -- 91
2019-09-26 06:00:00 10.9 4 Noroeste 8 Noroeste 0 -- -- 90
2019-09-26 05:00:00 11.1 2 Oeste 8 Oeste 0 -- -- 93
2019-09-26 04:00:00 10.6 0 Calma 6 Este 0 -- -- 94
2019-09-26 03:00:00 10.7 0 Calma 6 Noroeste 0 -- -- 91
2019-09-26 02:00:00 11.3 0 Calma 3 Este 0 -- -- 91
2019-09-26 01:00:00 11.3 0 Calma 6 Norte 0 -- -- 88
2019-09-26 00:00:00 11.4 3 Noroeste 6 Noroeste 0 -- -- 88
2019-09-25 23:00:00 12.5 0 Calma 10 Noroeste 0 -- -- 82
2019-09-25 22:00:00 13.5 5 Noroeste 10 Noroeste 0 -- -- 76
2019-09-25 21:00:00 14.8 3 Noroeste 8 Este 0 -- -- 72
2019-09-25 20:00:00 15.6 4 Este 15 Este 0 -- -- 68
2019-09-25 19:00:00 16.7 7 Este 15 Este 0 -- -- 61
2019-09-25 18:00:00 17.6 5 Sur 26 Sudoeste 0 -- -- 56
2019-09-25 17:00:00 18.7 12 Sudoeste 33 Sudoeste 0 -- -- 55
2019-09-25 16:00:00 19.8 11 Sur 30 Sudoeste 0 -- -- 57
2019-09-25 15:00:00 18.8 6 Este 19 Este 0 -- -- 69
2019-09-25 14:00:00 16.7 5 Nordeste 21 Este 0 -- -- 71
2019-09-25 13:00:00 17.3 5 Sudeste 24 Este 0 -- -- 68
2019-09-25 12:00:00 17.4 10 Este 21 Sudeste 0 -- -- 71
2019-09-25 11:00:00 16.7 6 Sudeste 15 Sudeste 0 -- -- 74
2019-09-25 10:00:00 14.9 3 Sudoeste 8 Sudeste 0 -- -- 78
2019-09-25 09:00:00 11.8 0 Calma 5 Norte 0 -- -- 89
2019-09-25 08:00:00 10.4 2 Oeste 5 Norte 0 -- -- 92
2019-09-25 07:00:00 10.7 0 Calma 6 Noroeste 0 -- -- 91
2019-09-25 06:00:00 11.2 0 Calma 4 Noroeste 0 -- -- 90
2019-09-25 05:00:00 11.6 0 Calma 6 Noroeste 0 -- -- 89
2019-09-25 04:00:00 11.7 4 Noroeste 10 Noroeste 0 -- -- 87
2019-09-25 03:00:00 11.6 3 Noroeste 9 Noroeste 0 -- -- 89
2019-09-25 02:00:00 12.7 0 Calma 6 Noroeste 0 -- -- 85
2019-09-25 01:00:00 12.2 4 Noroeste 10 Noroeste 0 -- -- 87
2019-09-25 00:00:00 12.8 4 Noroeste 11 Noroeste 0 -- -- 83
2019-09-24 23:00:00 13.8 3 Oeste 9 Noroeste 0 -- -- 80
2019-09-24 22:00:00 15.5 2 Noroeste 6 Noroeste 0 -- -- 76
2019-09-24 21:00:00 17.5 0 Calma 10 Este 0 -- -- 71
2019-09-24 20:00:00 19.1 8 Este 14 Este 0 -- -- 63
2019-09-24 19:00:00 21 7 Este 20 Este 0 -- -- 53
2019-09-24 18:00:00 22.6 12 Este 24 Este 0 -- -- 48
2019-09-24 17:00:00 23.2 10 Sudeste 23 Este 0 -- -- 47
2019-09-24 16:00:00 23.5 14 Este 28 Este 0 -- -- 46
2019-09-24 15:00:00 23.2 13 Este 29 Este 0 -- -- 50
2019-09-24 14:00:00 22.1 15 Este 32 Este 0 -- -- 53
2019-09-24 13:00:00 22 15 Este 27 Este 0 -- -- 54
2019-09-24 12:00:00 21.9 11 Este 28 Este 0 -- -- 55
2019-09-24 11:00:00 20.6 12 Este 22 Noroeste 0 -- -- 55
2019-09-24 10:00:00 18.3 14 Noroeste 27 Noroeste 0 -- -- 57
2019-09-24 09:00:00 17 16 Noroeste 39 Oeste 0 -- -- 57
2019-09-24 08:00:00 10 3 Este 10 Noroeste 0 -- -- 88
2019-09-24 07:00:00 9.6 3 Nordeste 5 Nordeste 0 -- -- 89
2019-09-24 06:00:00 9.9 2 Noroeste 6 Norte 0 -- -- 87
2019-09-24 05:00:00 9.8 2 Noroeste 5 Nordeste 0 -- -- 87
2019-09-24 04:00:00 10.1 0 Calma 4 Norte 0 -- -- 86
2019-09-24 03:00:00 10 0 Calma 8 Nordeste 0 -- -- 87
2019-09-24 02:00:00 10.9 3 Noroeste 9 Noroeste 0 -- -- 82
2019-09-24 01:00:00 10.2 2 Este 5 Este 0 -- -- 87
2019-09-24 00:00:00 10.3 4 Este 9 Nordeste 0 -- -- 86
2019-09-23 23:00:00 11 0 Calma 8 Norte 0 -- -- 84
2019-09-23 22:00:00 11.8 4 Noroeste 14 Noroeste 0 -- -- 81
2019-09-23 21:00:00 13 5 Noroeste 13 Noroeste 0 -- -- 78
2019-09-23 20:00:00 15.2 2 Sur 13 Este 0 -- -- 75
2019-09-23 19:00:00 17.4 6 Sudeste 13 Este 0 -- -- 60
2019-09-23 18:00:00 18 8 Este 18 Este 0 -- -- 58
2019-09-23 17:00:00 18.7 8 Este 17 Este 0 -- -- 58
2019-09-23 16:00:00 17.5 9 Este 17 Este 0 -- -- 63
2019-09-23 15:00:00 17.8 12 Este 24 Este 0 -- -- 63
2019-09-23 14:00:00 17.2 16 Este 29 Este 0 -- -- 64
2019-09-23 13:00:00 18.2 9 Este 20 Este 0 -- -- 65
2019-09-23 12:00:00 16.2 10 Este 18 Este 0 -- -- 71
2019-09-23 11:00:00 14.7 6 Sudeste 10 Sudeste 0 -- -- 81
2019-09-23 10:00:00 12 0 Calma 4 Oeste 0 -- -- 90
2019-09-23 09:00:00 10.3 3 Noroeste 8 Noroeste 0 -- -- 89
2019-09-23 08:00:00 10.4 4 Noroeste 10 Noroeste 0 -- -- 92
2019-09-23 07:00:00 11.1 4 Noroeste 7 Noroeste 0 -- -- 94
2019-09-23 06:00:00 11.8 0 Calma 8 Sudoeste 0 -- -- 95
2019-09-23 05:00:00 11.9 2 Norte 5 Norte 0 -- -- 95
2019-09-23 04:00:00 11.6 0 Calma 7 Noroeste 0 -- -- 95
2019-09-23 03:00:00 11.6 3 Noroeste 6 Noroeste 0 -- -- 95
2019-09-23 02:00:00 11.7 3 Sudoeste 12 Noroeste 0 -- -- 94
2019-09-23 01:00:00 11.7 4 Noroeste 12 Noroeste 0 -- -- 93
2019-09-23 00:00:00 12.1 6 Noroeste 12 Noroeste 0 -- -- 93
2019-09-22 23:00:00 13.2 6 Noroeste 11 Noroeste 0 -- -- 93
2019-09-22 22:00:00 14.2 5 Norte 12 Oeste 1.4 -- -- 94
2019-09-22 21:00:00 14.6 4 Noroeste 14 Noroeste 0 -- -- 91
2019-09-22 20:00:00 15.4 4 Noroeste 7 Sudoeste 0.2 -- -- 89
2019-09-22 19:00:00 18.1 3 Noroeste 9 Oeste 0 -- -- 83
2019-09-22 18:00:00 18.4 4 Noroeste 24 Sudoeste 1.2 -- -- 77
2019-09-22 17:00:00 22.1 10 Sur 21 Sudeste 0 -- -- 57
2019-09-22 16:00:00 21.5 6 Sudoeste 25 Oeste 0 -- -- 58
2019-09-22 15:00:00 21.6 15 Oeste 32 Oeste 0 -- -- 56
2019-09-22 14:00:00 22.2 12 Noroeste 26 Noroeste 0 -- -- 55
2019-09-22 13:00:00 20.7 13 Oeste 23 Oeste 0 -- -- 60
2019-09-22 12:00:00 19.7 12 Oeste 28 Oeste 0 -- -- 63
2019-09-22 11:00:00 18.4 6 Sudeste 13 Sudeste 0 -- -- 74
2019-09-22 10:00:00 14.6 2 Oeste 15 Este 0 -- -- 86
2019-09-22 09:00:00 12.3 9 Este 16 Este 0 -- -- 92
2019-09-22 08:00:00 10.9 7 Este 14 Este 0 -- -- 97
2019-09-22 07:00:00 10.4 0 Calma 6 Nordeste 0 -- -- 97
2019-09-22 06:00:00 10.4 2 Noroeste 6 Noroeste 0 -- -- 96
2019-09-22 05:00:00 10.7 0 Calma 5 Noroeste 0 -- -- 96
2019-09-22 04:00:00 10.4 2 Noroeste 6 Noroeste -- -- -- 97
2019-09-22 03:00:00 10.2 3 Norte 9 Noroeste 0 -- -- 97
2019-09-22 02:00:00 10.3 3 Noroeste 7 Oeste 0 -- -- 95
2019-09-22 01:00:00 10.7 4 Noroeste 6 Noroeste 0 -- -- 96
2019-09-22 00:00:00 11.5 3 Este 7 Noroeste 0 -- -- 94